Airfield :
LOGIN :

Register | Disclaimer

   EN    FR    IT 

 










Legend :    VFR   Marginal VFR   IFR   Intensive IFR   Very Intensive IFR
Visi :
Ceiling :
>= 8 km
>= 3000ft
5 to 8 km
1000 to 3000 ft
1500m to 5 km
500 to 1000 ft
800 to 1500m
200 to 500 ft
< 800m
< 200 ft
Symbols :   Thunderstorms  Fog  Heavy snow  Heavy precipitations  Wind > 20 kt
SIGMETs :     Misc.  Thunderstorms  Icing  Turbulence  Mountain Waves  Volcanic Ashes






- Airport Elevation : 256 ft
- IATA code : CFR


LFRK - Caen

CURRENT METAR :
  • 281030Z AUTO 23012KT 9999 SCT017 OVC210 10/07 Q1011 TEMPO 22015G25KT 4000 SHRA BKN012 BKN020CB

EXPIRED METARs :
  • 281000Z AUTO 20009KT 9999 FEW019 10/07 Q1010 TEMPO 22015G25KT 4000 SHRA BKN012 BKN020CB
  • 280930Z AUTO 20008KT CAVOK 09/07 Q1010 TEMPO 22015G25KT 4000 SHRA BKN012 BKN020CB
  • 280900Z AUTO 20010KT CAVOK 08/07 Q1010 TEMPO 22015G25KT 4000 SHRA BKN012 BKN020CB
  • 280830Z AUTO 20007KT CAVOK 07/06 Q1010 TEMPO 22015G25KT 4000 SHRA BKN012 BKN020CB
  • 280800Z AUTO 18008KT CAVOK 06/06 Q1010 TEMPO VRB15G25KT 4000 SHRA BKN012 SCT025CB

TAF TAF LFRK
Valid from the 28 at 09:00 until the 28 at 18:00 UTC


280800Z 2809/2818 20010KT 9999 SCT030
PROB40
TEMPO 2809/2811 BKN008
PROB40
TEMPO 2809/2815 22015G25KT 4000 SHRA BKN012 BKN020CB
BECMG 2813/2815 26010KT
TEMPO 2815/2818 26015G25KT 3000 SHRA BKN012 BKN020CB
Met : +33 2 31 26 68 11



MET'MAP, your aeronautical weather chart ! - Copyright ORBIFLY December 2007 - Disclaimer

ORBIFLY MET'MAP TEAM :

Programming & Development : Alexandra Zaïnal
Original concept : Baudouin d'Aumeries
Technical & hardware support : Manuel Goepfert
Assistance : Marc-Olivier Méhu




SOURCES & CREDITS :

   NOAA